Аэропорт: Брянск. Брянск

ICAO: UUBP

METAR:
2021-01-19 12:00:00
UUBP 191200Z 28002MPS CAVOK M16/M18 Q1015 R34/490240 NOSIG RMK QFE744/0992
METAR:
2021-01-19 10:51:00
TAF UUBP 191051Z 1912/1921 30002MPS 9999 BKN025 TEMPO 1912/1918 6000 -SN BKN010